sensor_id;sensor_type;location;lat;lon;timestamp;P1;durP1;ratioP1;P2;durP2;ratioP2
37199;SDS011;23096;50.892;16.746;2024-02-21T00:01:50;12.50;;;3.90;;
37199;SDS011;23096;50.892;16.746;2024-02-21T00:04:15;18.00;;;4.30;;
37199;SDS011;23096;50.892;16.746;2024-02-21T00:06:41;17.50;;;5.10;;
37199;SDS011;23096;50.892;16.746;2024-02-21T00:09:06;11.60;;;4.40;;
37199;SDS011;23096;50.892;16.746;2024-02-21T00:11:32;14.10;;;3.90;;
37199;SDS011;23096;50.892;16.746;2024-02-21T00:13:57;13.10;;;4.30;;
37199;SDS011;23096;50.892;16.746;2024-02-21T00:16:23;18.00;;;4.40;;
37199;SDS011;23096;50.892;16.746;2024-02-21T00:18:49;12.50;;;4.60;;
37199;SDS011;23096;50.892;16.746;2024-02-21T00:21:14;12.90;;;4.10;;
37199;SDS011;23096;50.892;16.746;2024-02-21T00:23:46;14.40;;;4.50;;
37199;SDS011;23096;50.892;16.746;2024-02-21T00:26:12;14.60;;;5.00;;
37199;SDS011;23096;50.892;16.746;2024-02-21T00:28:38;11.10;;;4.00;;
37199;SDS011;23096;50.892;16.746;2024-02-21T00:31:04;24.30;;;6.70;;
37199;SDS011;23096;50.892;16.746;2024-02-21T00:33:30;10.90;;;4.60;;
37199;SDS011;23096;50.892;16.746;2024-02-21T00:35:55;19.60;;;5.70;;
37199;SDS011;23096;50.892;16.746;2024-02-21T00:38:21;14.20;;;4.20;;
37199;SDS011;23096;50.892;16.746;2024-02-21T00:40:47;13.70;;;3.80;;
37199;SDS011;23096;50.892;16.746;2024-02-21T00:43:12;12.20;;;4.00;;
37199;SDS011;23096;50.892;16.746;2024-02-21T00:45:38;14.40;;;4.20;;
37199;SDS011;23096;50.892;16.746;2024-02-21T00:48:03;15.80;;;4.10;;
37199;SDS011;23096;50.892;16.746;2024-02-21T00:50:29;11.70;;;3.30;;
37199;SDS011;23096;50.892;16.746;2024-02-21T00:52:55;13.30;;;4.30;;
37199;SDS011;23096;50.892;16.746;2024-02-21T00:55:20;10.20;;;3.90;;
37199;SDS011;23096;50.892;16.746;2024-02-21T00:57:46;9.80;;;3.70;;
37199;SDS011;23096;50.892;16.746;2024-02-21T01:00:12;11.60;;;3.60;;
37199;SDS011;23096;50.892;16.746;2024-02-21T01:02:38;8.70;;;3.20;;
37199;SDS011;23096;50.892;16.746;2024-02-21T01:05:03;8.70;;;3.60;;
37199;SDS011;23096;50.892;16.746;2024-02-21T01:07:29;9.20;;;3.50;;
37199;SDS011;23096;50.892;16.746;2024-02-21T01:09:55;7.30;;;3.60;;
37199;SDS011;23096;50.892;16.746;2024-02-21T01:12:20;6.70;;;3.30;;
37199;SDS011;23096;50.892;16.746;2024-02-21T01:14:46;12.50;;;3.30;;
37199;SDS011;23096;50.892;16.746;2024-02-21T01:17:12;11.50;;;3.40;;
37199;SDS011;23096;50.892;16.746;2024-02-21T01:19:37;7.20;;;2.90;;
37199;SDS011;23096;50.892;16.746;2024-02-21T01:22:03;11.60;;;4.50;;
37199;SDS011;23096;50.892;16.746;2024-02-21T01:24:29;9.60;;;3.20;;
37199;SDS011;23096;50.892;16.746;2024-02-21T01:26:55;8.10;;;3.00;;
37199;SDS011;23096;50.892;16.746;2024-02-21T01:29:20;10.30;;;3.30;;
37199;SDS011;23096;50.892;16.746;2024-02-21T01:31:46;10.50;;;2.80;;
37199;SDS011;23096;50.892;16.746;2024-02-21T01:34:12;6.70;;;2.80;;
37199;SDS011;23096;50.892;16.746;2024-02-21T01:36:38;7.10;;;2.90;;
37199;SDS011;23096;50.892;16.746;2024-02-21T01:39:04;6.80;;;2.90;;
37199;SDS011;23096;50.892;16.746;2024-02-21T01:41:30;8.30;;;3.90;;
37199;SDS011;23096;50.892;16.746;2024-02-21T01:43:56;6.90;;;2.90;;
37199;SDS011;23096;50.892;16.746;2024-02-21T01:46:22;12.90;;;3.30;;
37199;SDS011;23096;50.892;16.746;2024-02-21T01:48:53;12.10;;;3.70;;
37199;SDS011;23096;50.892;16.746;2024-02-21T01:51:21;10.80;;;3.20;;
37199;SDS011;23096;50.892;16.746;2024-02-21T01:53:47;9.70;;;2.80;;
37199;SDS011;23096;50.892;16.746;2024-02-21T01:56:13;14.10;;;3.80;;
37199;SDS011;23096;50.892;16.746;2024-02-21T01:58:40;11.80;;;4.00;;
37199;SDS011;23096;50.892;16.746;2024-02-21T02:01:07;9.60;;;3.70;;
37199;SDS011;23096;50.892;16.746;2024-02-21T02:03:33;9.10;;;3.90;;
37199;SDS011;23096;50.892;16.746;2024-02-21T02:05:59;13.40;;;2.90;;
37199;SDS011;23096;50.892;16.746;2024-02-21T02:08:25;8.60;;;2.80;;
37199;SDS011;23096;50.892;16.746;2024-02-21T02:10:51;11.90;;;3.40;;
37199;SDS011;23096;50.892;16.746;2024-02-21T02:13:17;10.70;;;3.70;;
37199;SDS011;23096;50.892;16.746;2024-02-21T02:15:46;12.40;;;3.80;;
37199;SDS011;23096;50.892;16.746;2024-02-21T02:18:13;15.50;;;4.70;;
37199;SDS011;23096;50.892;16.746;2024-02-21T02:20:39;9.90;;;3.10;;
37199;SDS011;23096;50.892;16.746;2024-02-21T02:25:39;16.20;;;3.80;;
37199;SDS011;23096;50.892;16.746;2024-02-21T02:28:08;9.50;;;3.50;;
37199;SDS011;23096;50.892;16.746;2024-02-21T02:30:37;9.70;;;3.00;;
37199;SDS011;23096;50.892;16.746;2024-02-21T02:33:05;9.20;;;3.40;;
37199;SDS011;23096;50.892;16.746;2024-02-21T02:35:31;12.40;;;3.90;;
37199;SDS011;23096;50.892;16.746;2024-02-21T02:37:57;10.40;;;3.80;;
37199;SDS011;23096;50.892;16.746;2024-02-21T02:40:23;15.00;;;3.80;;
37199;SDS011;23096;50.892;16.746;2024-02-21T02:42:50;11.40;;;3.30;;
37199;SDS011;23096;50.892;16.746;2024-02-21T02:45:16;12.00;;;3.40;;
37199;SDS011;23096;50.892;16.746;2024-02-21T02:47:46;11.60;;;3.30;;
37199;SDS011;23096;50.892;16.746;2024-02-21T02:50:12;9.50;;;3.40;;
37199;SDS011;23096;50.892;16.746;2024-02-21T02:52:38;12.20;;;3.30;;
37199;SDS011;23096;50.892;16.746;2024-02-21T02:55:04;12.50;;;4.00;;
37199;SDS011;23096;50.892;16.746;2024-02-21T02:57:30;12.10;;;4.00;;
37199;SDS011;23096;50.892;16.746;2024-02-21T02:59:56;11.00;;;3.00;;
37199;SDS011;23096;50.892;16.746;2024-02-21T03:02:22;20.30;;;3.50;;
37199;SDS011;23096;50.892;16.746;2024-02-21T03:04:47;13.80;;;3.90;;
37199;SDS011;23096;50.892;16.746;2024-02-21T03:07:14;12.50;;;3.90;;
37199;SDS011;23096;50.892;16.746;2024-02-21T03:09:40;10.50;;;3.40;;
37199;SDS011;23096;50.892;16.746;2024-02-21T03:12:08;12.80;;;3.70;;
37199;SDS011;23096;50.892;16.746;2024-02-21T03:14:34;8.00;;;3.20;;
37199;SDS011;23096;50.892;16.746;2024-02-21T03:17:00;8.50;;;3.20;;
37199;SDS011;23096;50.892;16.746;2024-02-21T03:19:26;10.10;;;2.80;;
37199;SDS011;23096;50.892;16.746;2024-02-21T03:21:52;8.60;;;3.10;;
37199;SDS011;23096;50.892;16.746;2024-02-21T03:24:20;19.80;;;4.10;;
37199;SDS011;23096;50.892;16.746;2024-02-21T03:26:47;9.10;;;2.80;;
37199;SDS011;23096;50.892;16.746;2024-02-21T03:29:15;7.90;;;3.00;;
37199;SDS011;23096;50.892;16.746;2024-02-21T03:31:41;10.70;;;3.00;;
37199;SDS011;23096;50.892;16.746;2024-02-21T03:34:07;10.40;;;3.00;;
37199;SDS011;23096;50.892;16.746;2024-02-21T03:36:33;8.30;;;2.40;;
37199;SDS011;23096;50.892;16.746;2024-02-21T03:38:59;8.40;;;3.10;;
37199;SDS011;23096;50.892;16.746;2024-02-21T03:41:25;9.80;;;3.80;;
37199;SDS011;23096;50.892;16.746;2024-02-21T03:43:50;7.10;;;2.70;;
37199;SDS011;23096;50.892;16.746;2024-02-21T03:46:16;6.00;;;2.60;;
37199;SDS011;23096;50.892;16.746;2024-02-21T03:48:41;9.70;;;2.70;;
37199;SDS011;23096;50.892;16.746;2024-02-21T03:51:08;7.30;;;2.80;;
37199;SDS011;23096;50.892;16.746;2024-02-21T03:53:33;8.50;;;2.10;;
37199;SDS011;23096;50.892;16.746;2024-02-21T03:56:02;6.00;;;2.10;;
37199;SDS011;23096;50.892;16.746;2024-02-21T03:58:32;7.00;;;2.10;;
37199;SDS011;23096;50.892;16.746;2024-02-21T04:01:01;6.20;;;2.70;;
37199;SDS011;23096;50.892;16.746;2024-02-21T04:03:28;6.60;;;2.10;;
37199;SDS011;23096;50.892;16.746;2024-02-21T04:05:53;5.70;;;2.50;;
37199;SDS011;23096;50.892;16.746;2024-02-21T04:08:19;4.80;;;2.20;;
37199;SDS011;23096;50.892;16.746;2024-02-21T04:10:44;9.00;;;2.60;;
37199;SDS011;23096;50.892;16.746;2024-02-21T04:13:10;5.20;;;2.30;;
37199;SDS011;23096;50.892;16.746;2024-02-21T04:15:36;5.70;;;2.30;;
37199;SDS011;23096;50.892;16.746;2024-02-21T04:18:02;5.80;;;2.10;;
37199;SDS011;23096;50.892;16.746;2024-02-21T04:20:28;8.80;;;2.60;;
37199;SDS011;23096;50.892;16.746;2024-02-21T04:22:54;4.90;;;2.70;;
37199;SDS011;23096;50.892;16.746;2024-02-21T04:25:20;5.30;;;1.90;;
37199;SDS011;23096;50.892;16.746;2024-02-21T04:27:46;7.80;;;2.30;;
37199;SDS011;23096;50.892;16.746;2024-02-21T04:30:11;7.10;;;2.90;;
37199;SDS011;23096;50.892;16.746;2024-02-21T04:32:37;4.70;;;2.30;;
37199;SDS011;23096;50.892;16.746;2024-02-21T04:35:03;8.60;;;2.30;;
37199;SDS011;23096;50.892;16.746;2024-02-21T04:37:29;8.60;;;2.50;;
37199;SDS011;23096;50.892;16.746;2024-02-21T04:39:56;5.80;;;2.00;;
37199;SDS011;23096;50.892;16.746;2024-02-21T04:42:21;8.80;;;2.40;;
37199;SDS011;23096;50.892;16.746;2024-02-21T04:44:48;8.60;;;2.40;;
37199;SDS011;23096;50.892;16.746;2024-02-21T04:47:13;9.40;;;2.30;;
37199;SDS011;23096;50.892;16.746;2024-02-21T04:49:39;6.90;;;2.60;;
37199;SDS011;23096;50.892;16.746;2024-02-21T04:52:05;9.80;;;2.40;;
37199;SDS011;23096;50.892;16.746;2024-02-21T04:54:31;7.30;;;2.70;;
37199;SDS011;23096;50.892;16.746;2024-02-21T04:56:56;10.50;;;2.80;;
37199;SDS011;23096;50.892;16.746;2024-02-21T04:59:22;10.40;;;2.60;;
37199;SDS011;23096;50.892;16.746;2024-02-21T05:01:47;6.70;;;2.40;;
37199;SDS011;23096;50.892;16.746;2024-02-21T05:04:13;6.30;;;2.30;;
37199;SDS011;23096;50.892;16.746;2024-02-21T05:06:39;11.80;;;2.70;;
37199;SDS011;23096;50.892;16.746;2024-02-21T05:09:06;8.40;;;2.60;;
37199;SDS011;23096;50.892;16.746;2024-02-21T05:11:32;11.20;;;2.60;;
37199;SDS011;23096;50.892;16.746;2024-02-21T05:13:57;8.00;;;3.60;;
37199;SDS011;23096;50.892;16.746;2024-02-21T05:16:23;9.80;;;2.60;;
37199;SDS011;23096;50.892;16.746;2024-02-21T05:18:48;8.10;;;2.30;;
37199;SDS011;23096;50.892;16.746;2024-02-21T05:21:14;7.60;;;2.90;;
37199;SDS011;23096;50.892;16.746;2024-02-21T05:23:39;6.50;;;2.80;;
37199;SDS011;23096;50.892;16.746;2024-02-21T05:26:06;12.40;;;2.70;;
37199;SDS011;23096;50.892;16.746;2024-02-21T05:28:31;6.90;;;2.80;;
37199;SDS011;23096;50.892;16.746;2024-02-21T05:30:57;9.60;;;2.80;;
37199;SDS011;23096;50.892;16.746;2024-02-21T05:33:23;5.30;;;2.60;;
37199;SDS011;23096;50.892;16.746;2024-02-21T05:35:49;6.10;;;2.60;;
37199;SDS011;23096;50.892;16.746;2024-02-21T05:38:15;12.10;;;3.30;;
37199;SDS011;23096;50.892;16.746;2024-02-21T05:40:41;7.10;;;3.10;;
37199;SDS011;23096;50.892;16.746;2024-02-21T05:43:07;11.10;;;4.30;;
37199;SDS011;23096;50.892;16.746;2024-02-21T05:45:34;12.50;;;3.40;;
37199;SDS011;23096;50.892;16.746;2024-02-21T05:48:00;13.60;;;4.20;;
37199;SDS011;23096;50.892;16.746;2024-02-21T05:50:25;7.60;;;2.40;;
37199;SDS011;23096;50.892;16.746;2024-02-21T05:52:55;10.10;;;2.60;;
37199;SDS011;23096;50.892;16.746;2024-02-21T05:55:23;9.70;;;2.90;;
37199;SDS011;23096;50.892;16.746;2024-02-21T05:57:49;12.30;;;3.30;;
37199;SDS011;23096;50.892;16.746;2024-02-21T06:00:15;10.70;;;3.90;;
37199;SDS011;23096;50.892;16.746;2024-02-21T06:02:41;8.80;;;3.10;;
37199;SDS011;23096;50.892;16.746;2024-02-21T06:05:07;10.90;;;3.40;;
37199;SDS011;23096;50.892;16.746;2024-02-21T06:07:34;14.30;;;3.70;;
37199;SDS011;23096;50.892;16.746;2024-02-21T06:10:01;8.30;;;2.70;;
37199;SDS011;23096;50.892;16.746;2024-02-21T06:12:27;8.10;;;2.60;;
37199;SDS011;23096;50.892;16.746;2024-02-21T06:14:53;12.40;;;3.20;;
37199;SDS011;23096;50.892;16.746;2024-02-21T06:17:19;10.90;;;4.00;;
37199;SDS011;23096;50.892;16.746;2024-02-21T06:19:45;13.10;;;3.20;;
37199;SDS011;23096;50.892;16.746;2024-02-21T06:22:10;9.60;;;3.50;;
37199;SDS011;23096;50.892;16.746;2024-02-21T06:24:37;11.10;;;3.20;;
37199;SDS011;23096;50.892;16.746;2024-02-21T06:27:03;8.00;;;3.10;;
37199;SDS011;23096;50.892;16.746;2024-02-21T06:29:31;8.30;;;3.10;;
37199;SDS011;23096;50.892;16.746;2024-02-21T06:31:57;10.00;;;3.50;;
37199;SDS011;23096;50.892;16.746;2024-02-21T06:34:22;9.90;;;3.80;;
37199;SDS011;23096;50.892;16.746;2024-02-21T06:36:49;9.30;;;2.90;;
37199;SDS011;23096;50.892;16.746;2024-02-21T06:39:15;13.00;;;3.60;;
37199;SDS011;23096;50.892;16.746;2024-02-21T06:41:41;7.30;;;3.00;;
37199;SDS011;23096;50.892;16.746;2024-02-21T06:44:07;8.90;;;3.10;;
37199;SDS011;23096;50.892;16.746;2024-02-21T06:46:32;12.10;;;3.60;;
37199;SDS011;23096;50.892;16.746;2024-02-21T06:48:58;7.10;;;3.00;;
37199;SDS011;23096;50.892;16.746;2024-02-21T06:51:25;10.30;;;3.20;;
37199;SDS011;23096;50.892;16.746;2024-02-21T06:53:51;12.80;;;3.40;;
37199;SDS011;23096;50.892;16.746;2024-02-21T06:56:16;10.40;;;2.90;;
37199;SDS011;23096;50.892;16.746;2024-02-21T06:58:43;7.20;;;3.30;;
37199;SDS011;23096;50.892;16.746;2024-02-21T07:01:08;12.60;;;3.40;;
37199;SDS011;23096;50.892;16.746;2024-02-21T07:03:34;6.30;;;3.10;;
37199;SDS011;23096;50.892;16.746;2024-02-21T07:06:00;9.00;;;2.80;;
37199;SDS011;23096;50.892;16.746;2024-02-21T07:08:25;10.10;;;3.90;;
37199;SDS011;23096;50.892;16.746;2024-02-21T07:10:51;6.90;;;3.80;;
37199;SDS011;23096;50.892;16.746;2024-02-21T07:13:17;8.50;;;4.00;;
37199;SDS011;23096;50.892;16.746;2024-02-21T07:15:42;10.70;;;3.60;;
37199;SDS011;23096;50.892;16.746;2024-02-21T07:18:08;11.40;;;3.60;;
37199;SDS011;23096;50.892;16.746;2024-02-21T07:20:34;8.90;;;4.00;;
37199;SDS011;23096;50.892;16.746;2024-02-21T07:23:02;13.50;;;4.10;;
37199;SDS011;23096;50.892;16.746;2024-02-21T07:25:27;11.00;;;3.20;;
37199;SDS011;23096;50.892;16.746;2024-02-21T07:27:53;11.50;;;3.80;;
37199;SDS011;23096;50.892;16.746;2024-02-21T07:30:19;14.30;;;4.20;;
37199;SDS011;23096;50.892;16.746;2024-02-21T07:32:44;10.90;;;3.90;;
37199;SDS011;23096;50.892;16.746;2024-02-21T07:35:10;8.50;;;3.30;;
37199;SDS011;23096;50.892;16.746;2024-02-21T07:37:37;14.70;;;3.20;;
37199;SDS011;23096;50.892;16.746;2024-02-21T07:40:06;10.40;;;3.60;;
37199;SDS011;23096;50.892;16.746;2024-02-21T07:42:32;12.50;;;3.50;;
37199;SDS011;23096;50.892;16.746;2024-02-21T07:44:58;13.60;;;4.30;;
37199;SDS011;23096;50.892;16.746;2024-02-21T07:47:24;10.20;;;3.00;;
37199;SDS011;23096;50.892;16.746;2024-02-21T07:49:49;12.20;;;4.10;;
37199;SDS011;23096;50.892;16.746;2024-02-21T07:52:15;10.10;;;3.30;;
37199;SDS011;23096;50.892;16.746;2024-02-21T07:54:41;8.90;;;3.80;;
37199;SDS011;23096;50.892;16.746;2024-02-21T07:57:07;12.60;;;3.60;;
37199;SDS011;23096;50.892;16.746;2024-02-21T07:59:32;9.80;;;3.70;;
37199;SDS011;23096;50.892;16.746;2024-02-21T08:01:58;8.20;;;3.50;;
37199;SDS011;23096;50.892;16.746;2024-02-21T08:04:24;8.20;;;3.00;;
37199;SDS011;23096;50.892;16.746;2024-02-21T08:06:53;8.40;;;3.40;;
37199;SDS011;23096;50.892;16.746;2024-02-21T08:09:21;10.90;;;3.20;;
37199;SDS011;23096;50.892;16.746;2024-02-21T08:11:48;7.70;;;3.30;;
37199;SDS011;23096;50.892;16.746;2024-02-21T08:14:14;8.10;;;3.80;;
37199;SDS011;23096;50.892;16.746;2024-02-21T08:16:44;10.40;;;4.40;;
37199;SDS011;23096;50.892;16.746;2024-02-21T08:19:10;8.90;;;4.10;;
37199;SDS011;23096;50.892;16.746;2024-02-21T08:21:36;12.80;;;5.30;;
37199;SDS011;23096;50.892;16.746;2024-02-21T08:24:01;9.10;;;4.10;;
37199;SDS011;23096;50.892;16.746;2024-02-21T08:26:27;9.70;;;4.10;;
37199;SDS011;23096;50.892;16.746;2024-02-21T08:28:55;15.50;;;5.60;;
37199;SDS011;23096;50.892;16.746;2024-02-21T08:31:25;12.60;;;4.50;;
37199;SDS011;23096;50.892;16.746;2024-02-21T08:33:59;11.00;;;5.70;;
37199;SDS011;23096;50.892;16.746;2024-02-21T08:36:32;9.90;;;4.20;;
37199;SDS011;23096;50.892;16.746;2024-02-21T08:38:59;11.10;;;4.40;;
37199;SDS011;23096;50.892;16.746;2024-02-21T08:41:25;8.30;;;5.00;;
37199;SDS011;23096;50.892;16.746;2024-02-21T08:43:52;11.70;;;4.30;;
37199;SDS011;23096;50.892;16.746;2024-02-21T08:46:22;10.20;;;4.60;;
37199;SDS011;23096;50.892;16.746;2024-02-21T08:48:50;10.90;;;4.10;;
37199;SDS011;23096;50.892;16.746;2024-02-21T08:51:19;11.60;;;5.40;;
37199;SDS011;23096;50.892;16.746;2024-02-21T08:53:47;9.70;;;4.20;;
37199;SDS011;23096;50.892;16.746;2024-02-21T08:56:13;9.80;;;4.10;;
37199;SDS011;23096;50.892;16.746;2024-02-21T08:58:39;11.80;;;5.20;;
37199;SDS011;23096;50.892;16.746;2024-02-21T09:01:08;10.60;;;4.90;;
37199;SDS011;23096;50.892;16.746;2024-02-21T09:03:38;10.30;;;4.90;;
37199;SDS011;23096;50.892;16.746;2024-02-21T09:06:05;9.90;;;4.40;;
37199;SDS011;23096;50.892;16.746;2024-02-21T09:08:31;13.80;;;4.60;;
37199;SDS011;23096;50.892;16.746;2024-02-21T09:10:57;8.50;;;4.50;;
37199;SDS011;23096;50.892;16.746;2024-02-21T09:13:23;8.40;;;4.70;;
37199;SDS011;23096;50.892;16.746;2024-02-21T09:15:49;11.60;;;4.50;;
37199;SDS011;23096;50.892;16.746;2024-02-21T09:18:15;10.60;;;6.20;;
37199;SDS011;23096;50.892;16.746;2024-02-21T09:20:43;13.00;;;5.60;;
37199;SDS011;23096;50.892;16.746;2024-02-21T09:23:09;13.40;;;5.60;;
37199;SDS011;23096;50.892;16.746;2024-02-21T09:25:34;9.80;;;4.60;;
37199;SDS011;23096;50.892;16.746;2024-02-21T09:28:01;7.60;;;3.90;;
37199;SDS011;23096;50.892;16.746;2024-02-21T09:30:28;10.50;;;4.60;;
37199;SDS011;23096;50.892;16.746;2024-02-21T09:32:53;11.80;;;4.10;;
37199;SDS011;23096;50.892;16.746;2024-02-21T09:35:19;8.20;;;4.20;;
37199;SDS011;23096;50.892;16.746;2024-02-21T09:37:47;11.00;;;3.80;;
37199;SDS011;23096;50.892;16.746;2024-02-21T09:40:14;8.30;;;4.20;;
37199;SDS011;23096;50.892;16.746;2024-02-21T09:42:44;8.80;;;4.20;;
37199;SDS011;23096;50.892;16.746;2024-02-21T09:45:22;7.30;;;3.80;;
37199;SDS011;23096;50.892;16.746;2024-02-21T09:50:45;8.70;;;4.20;;
37199;SDS011;23096;50.892;16.746;2024-02-21T09:53:12;7.80;;;3.80;;
37199;SDS011;23096;50.892;16.746;2024-02-21T09:55:39;9.30;;;3.80;;
37199;SDS011;23096;50.892;16.746;2024-02-21T09:58:07;7.50;;;4.10;;
37199;SDS011;23096;50.892;16.746;2024-02-21T10:00:34;10.60;;;4.30;;
37199;SDS011;23096;50.892;16.746;2024-02-21T10:03:00;5.90;;;3.50;;
37199;SDS011;23096;50.892;16.746;2024-02-21T10:05:26;8.80;;;3.70;;
37199;SDS011;23096;50.892;16.746;2024-02-21T10:07:52;9.70;;;3.80;;
37199;SDS011;23096;50.892;16.746;2024-02-21T10:10:20;10.20;;;3.80;;
37199;SDS011;23096;50.892;16.746;2024-02-21T10:15:19;8.20;;;3.50;;
37199;SDS011;23096;50.892;16.746;2024-02-21T10:17:46;9.60;;;3.70;;
37199;SDS011;23096;50.892;16.746;2024-02-21T10:20:12;6.10;;;3.10;;
37199;SDS011;23096;50.892;16.746;2024-02-21T10:22:39;9.10;;;4.30;;
37199;SDS011;23096;50.892;16.746;2024-02-21T10:25:08;7.30;;;3.10;;
37199;SDS011;23096;50.892;16.746;2024-02-21T10:27:34;10.40;;;3.90;;
37199;SDS011;23096;50.892;16.746;2024-02-21T10:30:01;10.30;;;5.10;;
37199;SDS011;23096;50.892;16.746;2024-02-21T10:32:27;6.90;;;3.50;;
37199;SDS011;23096;50.892;16.746;2024-02-21T10:35:00;5.50;;;3.30;;
37199;SDS011;23096;50.892;16.746;2024-02-21T10:37:32;9.30;;;3.20;;
37199;SDS011;23096;50.892;16.746;2024-02-21T10:39:57;5.80;;;3.60;;
37199;SDS011;23096;50.892;16.746;2024-02-21T10:42:23;8.40;;;3.00;;
37199;SDS011;23096;50.892;16.746;2024-02-21T10:44:55;10.90;;;3.30;;
37199;SDS011;23096;50.892;16.746;2024-02-21T10:47:29;4.50;;;3.00;;
37199;SDS011;23096;50.892;16.746;2024-02-21T10:50:02;4.80;;;3.00;;
37199;SDS011;23096;50.892;16.746;2024-02-21T10:55:11;6.50;;;3.30;;
37199;SDS011;23096;50.892;16.746;2024-02-21T10:57:45;11.00;;;4.10;;
37199;SDS011;23096;50.892;16.746;2024-02-21T11:00:11;6.70;;;3.60;;
37199;SDS011;23096;50.892;16.746;2024-02-21T11:02:41;6.70;;;3.50;;
37199;SDS011;23096;50.892;16.746;2024-02-21T11:05:07;6.10;;;3.10;;
37199;SDS011;23096;50.892;16.746;2024-02-21T11:07:35;9.50;;;3.20;;
37199;SDS011;23096;50.892;16.746;2024-02-21T11:10:02;9.20;;;4.50;;
37199;SDS011;23096;50.892;16.746;2024-02-21T11:12:31;7.00;;;3.70;;
37199;SDS011;23096;50.892;16.746;2024-02-21T11:15:05;6.10;;;3.30;;
37199;SDS011;23096;50.892;16.746;2024-02-21T11:17:31;6.30;;;3.60;;
37199;SDS011;23096;50.892;16.746;2024-02-21T11:19:57;7.00;;;3.70;;
37199;SDS011;23096;50.892;16.746;2024-02-21T11:22:24;4.60;;;3.80;;
37199;SDS011;23096;50.892;16.746;2024-02-21T11:24:54;6.60;;;3.60;;
37199;SDS011;23096;50.892;16.746;2024-02-21T11:27:21;7.80;;;3.60;;
37199;SDS011;23096;50.892;16.746;2024-02-21T11:32:58;9.10;;;3.80;;
37199;SDS011;23096;50.892;16.746;2024-02-21T11:35:32;5.90;;;3.40;;
37199;SDS011;23096;50.892;16.746;2024-02-21T11:38:11;7.00;;;3.60;;
37199;SDS011;23096;50.892;16.746;2024-02-21T11:40:45;6.90;;;3.90;;
37199;SDS011;23096;50.892;16.746;2024-02-21T11:43:11;8.40;;;3.50;;
37199;SDS011;23096;50.892;16.746;2024-02-21T11:45:38;6.90;;;3.60;;
37199;SDS011;23096;50.892;16.746;2024-02-21T11:48:07;7.90;;;4.10;;
37199;SDS011;23096;50.892;16.746;2024-02-21T11:50:36;8.40;;;4.00;;
37199;SDS011;23096;50.892;16.746;2024-02-21T11:53:02;7.40;;;4.30;;
37199;SDS011;23096;50.892;16.746;2024-02-21T11:55:28;7.20;;;4.20;;
37199;SDS011;23096;50.892;16.746;2024-02-21T11:57:54;7.40;;;3.50;;
37199;SDS011;23096;50.892;16.746;2024-02-21T12:00:19;5.20;;;3.50;;
37199;SDS011;23096;50.892;16.746;2024-02-21T12:02:46;10.10;;;4.60;;
37199;SDS011;23096;50.892;16.746;2024-02-21T12:05:11;8.30;;;3.60;;
37199;SDS011;23096;50.892;16.746;2024-02-21T12:07:37;6.30;;;3.50;;
37199;SDS011;23096;50.892;16.746;2024-02-21T12:10:12;8.60;;;3.50;;
37199;SDS011;23096;50.892;16.746;2024-02-21T12:12:38;5.10;;;3.60;;
37199;SDS011;23096;50.892;16.746;2024-02-21T12:15:05;9.10;;;4.60;;
37199;SDS011;23096;50.892;16.746;2024-02-21T12:17:34;7.40;;;3.90;;
37199;SDS011;23096;50.892;16.746;2024-02-21T12:20:04;6.90;;;4.40;;
37199;SDS011;23096;50.892;16.746;2024-02-21T12:22:37;7.90;;;3.90;;
37199;SDS011;23096;50.892;16.746;2024-02-21T12:25:18;8.70;;;4.00;;
37199;SDS011;23096;50.892;16.746;2024-02-21T12:27:45;8.10;;;4.30;;
37199;SDS011;23096;50.892;16.746;2024-02-21T12:30:11;6.30;;;4.00;;
37199;SDS011;23096;50.892;16.746;2024-02-21T12:32:37;8.90;;;3.70;;
37199;SDS011;23096;50.892;16.746;2024-02-21T12:35:03;5.10;;;3.90;;
37199;SDS011;23096;50.892;16.746;2024-02-21T12:37:29;6.40;;;3.80;;
37199;SDS011;23096;50.892;16.746;2024-02-21T12:46:26;9.20;;;3.80;;
37199;SDS011;23096;50.892;16.746;2024-02-21T12:48:52;7.20;;;3.90;;
37199;SDS011;23096;50.892;16.746;2024-02-21T12:51:17;9.00;;;4.50;;
37199;SDS011;23096;50.892;16.746;2024-02-21T12:53:47;6.80;;;3.30;;
37199;SDS011;23096;50.892;16.746;2024-02-21T12:56:15;11.50;;;5.20;;
37199;SDS011;23096;50.892;16.746;2024-02-21T12:58:41;7.00;;;3.70;;
37199;SDS011;23096;50.892;16.746;2024-02-21T13:01:06;7.50;;;3.50;;
37199;SDS011;23096;50.892;16.746;2024-02-21T13:03:32;10.70;;;4.20;;
37199;SDS011;23096;50.892;16.746;2024-02-21T13:05:57;7.40;;;3.90;;
37199;SDS011;23096;50.892;16.746;2024-02-21T13:08:24;9.30;;;4.00;;
37199;SDS011;23096;50.892;16.746;2024-02-21T13:10:53;8.40;;;4.40;;
37199;SDS011;23096;50.892;16.746;2024-02-21T13:13:19;9.80;;;3.80;;
37199;SDS011;23096;50.892;16.746;2024-02-21T13:15:44;8.80;;;4.80;;
37199;SDS011;23096;50.892;16.746;2024-02-21T13:18:09;11.10;;;4.60;;
37199;SDS011;23096;50.892;16.746;2024-02-21T13:20:36;8.10;;;4.10;;
37199;SDS011;23096;50.892;16.746;2024-02-21T13:23:02;8.40;;;4.00;;
37199;SDS011;23096;50.892;16.746;2024-02-21T13:25:28;9.10;;;5.10;;
37199;SDS011;23096;50.892;16.746;2024-02-21T13:27:54;8.60;;;4.20;;
37199;SDS011;23096;50.892;16.746;2024-02-21T13:30:20;8.40;;;4.70;;
37199;SDS011;23096;50.892;16.746;2024-02-21T13:32:46;7.40;;;3.80;;
37199;SDS011;23096;50.892;16.746;2024-02-21T13:35:12;8.30;;;4.40;;
37199;SDS011;23096;50.892;16.746;2024-02-21T13:37:38;9.40;;;5.00;;
37199;SDS011;23096;50.892;16.746;2024-02-21T13:40:04;8.50;;;3.70;;
37199;SDS011;23096;50.892;16.746;2024-02-21T13:42:30;8.30;;;4.00;;
37199;SDS011;23096;50.892;16.746;2024-02-21T13:44:56;9.20;;;4.40;;
37199;SDS011;23096;50.892;16.746;2024-02-21T13:47:21;10.50;;;5.00;;
37199;SDS011;23096;50.892;16.746;2024-02-21T13:49:47;8.70;;;4.30;;
37199;SDS011;23096;50.892;16.746;2024-02-21T13:52:13;10.50;;;4.80;;
37199;SDS011;23096;50.892;16.746;2024-02-21T13:54:40;8.30;;;4.50;;
37199;SDS011;23096;50.892;16.746;2024-02-21T13:57:07;9.90;;;4.60;;
37199;SDS011;23096;50.892;16.746;2024-02-21T13:59:32;10.40;;;4.80;;
37199;SDS011;23096;50.892;16.746;2024-02-21T14:01:59;7.00;;;4.50;;
37199;SDS011;23096;50.892;16.746;2024-02-21T14:04:25;12.90;;;4.70;;
37199;SDS011;23096;50.892;16.746;2024-02-21T14:06:50;13.50;;;5.00;;
37199;SDS011;23096;50.892;16.746;2024-02-21T14:09:18;7.00;;;3.90;;
37199;SDS011;23096;50.892;16.746;2024-02-21T14:11:44;11.00;;;4.80;;
37199;SDS011;23096;50.892;16.746;2024-02-21T14:14:10;11.80;;;5.20;;
37199;SDS011;23096;50.892;16.746;2024-02-21T14:16:36;8.80;;;4.50;;
37199;SDS011;23096;50.892;16.746;2024-02-21T14:19:02;17.90;;;5.70;;
37199;SDS011;23096;50.892;16.746;2024-02-21T14:21:27;10.40;;;4.70;;
37199;SDS011;23096;50.892;16.746;2024-02-21T14:23:54;12.40;;;4.70;;
37199;SDS011;23096;50.892;16.746;2024-02-21T14:26:19;8.70;;;4.50;;
37199;SDS011;23096;50.892;16.746;2024-02-21T14:28:47;10.80;;;5.00;;
37199;SDS011;23096;50.892;16.746;2024-02-21T14:31:12;8.70;;;4.70;;
37199;SDS011;23096;50.892;16.746;2024-02-21T14:33:38;13.20;;;5.50;;
37199;SDS011;23096;50.892;16.746;2024-02-21T14:36:04;6.70;;;3.60;;
37199;SDS011;23096;50.892;16.746;2024-02-21T14:38:29;8.80;;;4.60;;
37199;SDS011;23096;50.892;16.746;2024-02-21T14:40:55;12.60;;;4.60;;
37199;SDS011;23096;50.892;16.746;2024-02-21T14:43:21;8.80;;;4.40;;
37199;SDS011;23096;50.892;16.746;2024-02-21T14:45:47;10.10;;;4.90;;